createdAt,value
2022-12-18T00:01:34.252Z,101950.22
2022-12-18T00:04:03.638Z,102003.31
2022-12-18T00:06:33.629Z,102004.97
2022-12-18T00:09:02.656Z,102004.13
2022-12-18T00:11:32.200Z,101999.16
2022-12-18T00:14:02.005Z,101999.78
2022-12-18T00:16:34.051Z,101992.19
2022-12-18T00:19:03.047Z,101967.34
2022-12-18T00:21:32.214Z,101982.84
2022-12-18T00:24:01.187Z,101980.22
2022-12-18T00:26:31.235Z,101986.25
2022-12-18T00:29:01.786Z,101992.50
2022-12-18T00:31:31.913Z,101989.94
2022-12-18T00:34:01.179Z,101988.28
2022-12-18T00:36:31.075Z,101983.19
2022-12-18T00:39:00.612Z,101972.19
2022-12-18T00:41:46.471Z,101951.50
2022-12-18T00:44:17.126Z,101978.22
2022-12-18T00:46:48.254Z,101970.47
2022-12-18T00:49:17.299Z,101942.97
2022-12-18T00:51:45.342Z,101967.91
2022-12-18T00:54:13.425Z,101965.31
2022-12-18T00:56:49.725Z,101953.22
2022-12-18T00:59:18.265Z,101964.44
2022-12-18T01:01:48.709Z,101984.97
2022-12-18T01:04:16.826Z,101972.28
2022-12-18T01:06:44.937Z,101982.22
2022-12-18T01:09:12.950Z,101989.31
2022-12-18T01:11:40.870Z,101952.38
2022-12-18T01:14:08.767Z,101995.25
2022-12-18T01:16:36.814Z,101996.13
2022-12-18T01:19:06.188Z,101946.31
2022-12-18T01:21:34.644Z,101951.53
2022-12-18T01:24:02.716Z,101947.19
2022-12-18T01:26:31.712Z,101996.84
2022-12-18T01:28:59.970Z,101994.38
2022-12-18T01:31:30.471Z,101949.91
2022-12-18T01:33:58.837Z,102003.00
2022-12-18T01:36:30.205Z,101992.28
2022-12-18T01:38:58.723Z,101993.81
2022-12-18T01:41:49.553Z,101980.13
2022-12-18T01:44:56.206Z,101976.84
2022-12-18T01:47:27.241Z,101976.97
2022-12-18T01:49:56.366Z,101959.13
2022-12-18T01:52:27.934Z,101962.47
2022-12-18T01:54:57.763Z,101955.78
2022-12-18T01:57:27.168Z,101953.28
2022-12-18T01:59:58.141Z,101949.16
2022-12-18T02:02:26.308Z,101937.91
2022-12-18T02:04:54.255Z,101956.59
2022-12-18T02:07:32.289Z,101915.53
2022-12-18T02:10:04.802Z,101952.47
2022-12-18T02:12:42.256Z,101944.94
2022-12-18T02:15:18.313Z,101938.94
2022-12-18T02:17:51.286Z,101893.53
2022-12-18T02:20:24.310Z,101915.63
2022-12-18T02:23:14.463Z,101957.56
2022-12-18T02:26:07.089Z,101930.91
2022-12-18T02:28:40.899Z,101962.66
2022-12-18T02:31:13.274Z,101895.09
2022-12-18T02:33:43.638Z,101927.41
2022-12-18T02:36:14.377Z,101954.38
2022-12-18T02:38:44.690Z,101943.78
2022-12-18T02:41:16.662Z,101955.97
2022-12-18T02:43:49.585Z,101949.34
2022-12-18T02:46:31.656Z,101963.03
2022-12-18T02:49:08.542Z,101953.44
2022-12-18T02:51:45.927Z,101946.66
2022-12-18T02:54:25.383Z,101887.63
2022-12-18T02:56:58.009Z,101947.66
2022-12-18T02:59:32.363Z,101948.44
2022-12-18T03:02:06.742Z,101914.44
2022-12-18T03:04:41.005Z,101950.03
2022-12-18T03:07:13.824Z,101952.75
2022-12-18T03:09:45.802Z,101944.97
2022-12-18T03:12:25.164Z,101887.47
2022-12-18T03:14:58.761Z,101929.56
2022-12-18T03:17:30.069Z,101925.53
2022-12-18T03:20:06.251Z,101933.06
2022-12-18T03:22:37.335Z,101928.94
2022-12-18T03:25:08.580Z,101916.91
2022-12-18T03:27:42.660Z,101921.16
2022-12-18T03:30:14.366Z,101919.50
2022-12-18T03:32:47.247Z,101911.91
2022-12-18T03:35:19.891Z,101927.25
2022-12-18T03:37:47.734Z,101911.72
2022-12-18T03:40:15.676Z,101911.78
2022-12-18T03:42:51.684Z,101926.31
2022-12-18T03:45:26.644Z,101926.94
2022-12-18T03:48:02.505Z,101921.00
2022-12-18T03:50:40.088Z,101925.16
2022-12-18T03:53:19.912Z,101933.63
2022-12-18T03:55:50.018Z,101911.59
2022-12-18T03:58:23.009Z,101896.13
2022-12-18T04:00:53.781Z,101924.31
2022-12-18T04:03:26.452Z,101913.19
2022-12-18T04:05:57.323Z,101916.66
2022-12-18T04:08:26.094Z,101924.97
2022-12-18T04:10:54.335Z,101927.50
2022-12-18T04:13:29.584Z,101934.16
2022-12-18T04:15:57.558Z,101924.09
2022-12-18T04:18:25.466Z,101936.72
2022-12-18T04:20:53.721Z,101936.78
2022-12-18T04:23:22.137Z,101932.38
2022-12-18T04:25:50.487Z,101940.31
2022-12-18T04:28:18.660Z,101902.38
2022-12-18T04:30:48.742Z,101933.00
2022-12-18T04:33:17.163Z,101904.94
2022-12-18T04:35:45.642Z,101932.69
2022-12-18T04:38:13.656Z,101924.09
2022-12-18T04:40:41.913Z,101845.47
2022-12-18T04:43:10.696Z,101913.28
2022-12-18T04:45:39.023Z,101910.56
2022-12-18T04:48:09.863Z,101904.63
2022-12-18T04:50:38.513Z,101896.13
2022-12-18T04:53:06.517Z,101890.09
2022-12-18T04:55:34.495Z,101891.03
2022-12-18T04:58:02.511Z,101879.09
2022-12-18T05:00:30.431Z,101885.78
2022-12-18T05:02:58.538Z,101881.50
2022-12-18T05:05:27.949Z,101873.91
2022-12-18T05:07:55.907Z,101872.94
2022-12-18T05:10:23.953Z,101849.88
2022-12-18T05:13:01.123Z,101815.59
2022-12-18T05:15:30.731Z,101842.44
2022-12-18T05:17:58.720Z,101869.72
2022-12-18T05:20:28.285Z,101861.16
2022-12-18T05:22:56.810Z,101873.91
2022-12-18T05:25:25.699Z,101875.59
2022-12-18T05:27:53.641Z,101858.59
2022-12-18T05:30:21.611Z,101820.78
2022-12-18T05:32:49.611Z,101850.94
2022-12-18T05:35:17.819Z,101813.91
2022-12-18T05:37:47.110Z,101855.94
2022-12-18T05:40:15.400Z,101849.94
2022-12-18T05:42:43.322Z,101853.56
2022-12-18T05:45:11.680Z,101849.22
2022-12-18T05:47:39.767Z,101831.97
2022-12-18T05:50:09.350Z,101840.44
2022-12-18T05:52:37.250Z,101814.13
2022-12-18T05:55:07.022Z,101801.41
2022-12-18T05:57:35.035Z,101852.53
2022-12-18T06:00:03.035Z,101802.94
2022-12-18T06:02:31.122Z,101809.13
2022-12-18T06:04:59.214Z,101836.66
2022-12-18T06:07:27.892Z,101788.09
2022-12-18T06:09:55.891Z,101840.13
2022-12-18T06:12:25.266Z,101845.97
2022-12-18T06:14:53.139Z,101844.63
2022-12-18T06:17:21.150Z,101819.00
2022-12-18T06:19:49.278Z,101838.72
2022-12-18T06:22:17.887Z,101822.47
2022-12-18T06:24:45.783Z,101796.88
2022-12-18T06:27:14.052Z,101822.47
2022-12-18T06:29:43.686Z,101831.16
2022-12-18T06:32:11.616Z,101817.59
2022-12-18T06:34:40.335Z,101820.16
2022-12-18T06:37:08.230Z,101824.53
2022-12-18T06:39:36.079Z,101761.94
2022-12-18T06:42:05.032Z,101815.00
2022-12-18T06:44:32.924Z,101810.75
2022-12-18T06:47:02.141Z,101814.13
2022-12-18T06:49:30.775Z,101789.38
2022-12-18T06:51:58.796Z,101820.09
2022-12-18T06:54:26.643Z,101821.88
2022-12-18T06:56:54.790Z,101826.13
2022-12-18T06:59:22.667Z,101789.38
2022-12-18T07:01:50.817Z,101813.31
2022-12-18T07:04:20.374Z,101819.34
2022-12-18T07:06:48.427Z,101759.34
2022-12-18T07:09:16.284Z,101805.50
2022-12-18T07:11:44.273Z,101803.06
2022-12-18T07:14:12.323Z,101842.41
2022-12-18T07:16:40.197Z,101791.00
2022-12-18T07:19:08.176Z,101840.75
2022-12-18T07:21:37.613Z,101827.88
2022-12-18T07:24:06.437Z,101839.00
2022-12-18T07:26:34.565Z,101806.50
2022-12-18T07:29:02.592Z,101832.22
2022-12-18T07:31:30.520Z,101836.47
2022-12-18T07:33:59.158Z,101768.06
2022-12-18T07:36:27.610Z,101797.13
2022-12-18T07:38:57.075Z,101833.91
2022-12-18T07:41:25.162Z,101831.50
2022-12-18T07:43:53.273Z,101832.38
2022-12-18T07:46:21.199Z,101835.78
2022-12-18T07:48:49.994Z,101826.38
2022-12-18T07:51:19.324Z,101825.31
2022-12-18T07:53:49.679Z,101804.09
2022-12-18T07:56:31.253Z,101776.69
2022-12-18T07:59:00.475Z,101801.53
2022-12-18T08:01:29.125Z,101770.75
2022-12-18T08:03:57.838Z,101804.94
2022-12-18T08:06:25.720Z,101842.81
2022-12-18T08:08:54.799Z,101837.66
2022-12-18T08:11:25.986Z,101782.22
2022-12-18T08:13:54.510Z,101818.31
2022-12-18T08:16:23.609Z,101821.72
2022-12-18T08:18:53.400Z,101819.22
2022-12-18T08:21:24.390Z,101814.97
2022-12-18T08:23:53.089Z,101817.53
2022-12-18T08:26:21.352Z,101811.75
2022-12-18T08:28:52.041Z,101810.22
2022-12-18T08:31:20.287Z,101811.13
2022-12-18T08:33:51.251Z,101766.72
2022-12-18T08:36:19.292Z,101810.25
2022-12-18T08:38:47.427Z,101815.44
2022-12-18T08:41:17.424Z,101811.19
2022-12-18T08:44:02.851Z,101812.19
2022-12-18T08:46:36.305Z,101765.22
2022-12-18T08:49:05.201Z,101767.06
2022-12-18T08:51:33.784Z,101803.06
2022-12-18T08:54:01.992Z,101805.66
2022-12-18T08:56:31.088Z,101731.28
2022-12-18T08:58:59.219Z,101779.31
2022-12-18T09:01:27.348Z,101774.16
2022-12-18T09:03:56.880Z,101811.72
2022-12-18T09:06:25.394Z,101807.53
2022-12-18T09:08:53.478Z,101815.25
2022-12-18T09:11:24.962Z,101792.25
2022-12-18T09:13:53.338Z,101815.34
2022-12-18T09:16:23.112Z,101775.28
2022-12-18T09:18:54.994Z,101814.66
2022-12-18T09:21:24.431Z,101803.56
2022-12-18T09:23:52.935Z,101801.94
2022-12-18T09:26:21.315Z,101789.28
2022-12-18T09:28:49.459Z,101785.97
2022-12-18T09:31:19.234Z,101782.56
2022-12-18T09:33:47.265Z,101739.09
2022-12-18T09:36:17.887Z,101757.75
2022-12-18T09:38:47.753Z,101771.44
2022-12-18T09:41:34.556Z,101765.53
2022-12-18T09:44:07.406Z,101712.75
2022-12-18T09:46:39.470Z,101691.41
2022-12-18T09:49:13.348Z,101758.03
2022-12-18T09:51:45.566Z,101724.81
2022-12-18T09:54:20.844Z,101737.59
2022-12-18T09:56:49.101Z,101729.94
2022-12-18T09:59:24.952Z,101723.97
2022-12-18T10:01:53.243Z,101721.41
2022-12-18T10:04:21.254Z,101719.75
2022-12-18T10:06:56.713Z,101723.97
2022-12-18T10:09:36.439Z,101724.03
2022-12-18T10:12:10.752Z,101660.03
2022-12-18T10:14:45.241Z,101716.41
2022-12-18T10:17:25.171Z,101730.91
2022-12-18T10:19:58.454Z,101727.50
2022-12-18T10:22:41.987Z,101717.25
2022-12-18T10:25:21.480Z,101706.25
2022-12-18T10:27:53.770Z,101693.47
2022-12-18T10:30:24.300Z,101709.66
2022-12-18T10:32:52.543Z,101713.94
2022-12-18T10:35:24.268Z,101709.69
2022-12-18T10:38:06.720Z,101710.53
2022-12-18T10:40:50.920Z,101683.25
2022-12-18T10:43:24.037Z,101642.31
2022-12-18T10:46:04.239Z,101724.19
2022-12-18T10:48:33.886Z,101711.44
2022-12-18T10:51:10.831Z,101701.25
2022-12-18T10:53:44.066Z,101674.78
2022-12-18T10:56:14.755Z,101705.50
2022-12-18T10:58:43.157Z,101702.94
2022-12-18T11:01:13.962Z,101697.81
2022-12-18T11:03:44.931Z,101646.72
2022-12-18T11:06:14.440Z,101689.31
2022-12-18T11:08:44.799Z,101683.34
2022-12-18T11:11:22.780Z,101699.56
2022-12-18T11:14:02.857Z,101690.19
2022-12-18T11:16:36.822Z,101684.13
2022-12-18T11:19:23.630Z,101699.56
2022-12-18T11:21:52.050Z,101697.88
2022-12-18T11:24:31.058Z,101682.50
2022-12-18T11:27:03.363Z,101687.66
2022-12-18T11:29:36.096Z,101649.25
2022-12-18T11:32:30.346Z,101684.25
2022-12-18T11:35:03.720Z,101680.84
2022-12-18T11:37:32.703Z,101676.53
2022-12-18T11:40:03.657Z,101702.06
2022-12-18T11:42:40.881Z,101693.63
2022-12-18T11:45:25.759Z,101692.78
2022-12-18T11:47:59.130Z,101685.13
2022-12-18T11:50:34.300Z,101618.59
2022-12-18T11:53:06.145Z,101645.91
2022-12-18T11:55:43.815Z,101674.84
2022-12-18T11:58:22.474Z,101655.28
2022-12-18T12:00:59.917Z,101691.94
2022-12-18T12:03:48.055Z,101649.31
2022-12-18T12:06:23.486Z,101683.44
2022-12-18T12:09:03.268Z,101704.72
2022-12-18T12:11:43.189Z,101657.75
2022-12-18T12:14:32.164Z,101697.94
2022-12-18T12:17:06.095Z,101698.78
2022-12-18T12:19:45.849Z,101676.59
2022-12-18T12:22:24.643Z,101718.38
2022-12-18T12:25:05.571Z,101721.78
2022-12-18T12:27:42.507Z,101651.88
2022-12-18T12:30:17.786Z,101704.69
2022-12-18T12:32:58.569Z,101720.91
2022-12-18T12:35:36.085Z,101719.25
2022-12-18T12:38:13.174Z,101709.03
2022-12-18T12:40:53.870Z,101718.41
2022-12-18T12:43:34.356Z,101726.06
2022-12-18T12:48:58.362Z,101725.28
2022-12-18T12:51:30.291Z,101722.69
2022-12-18T12:54:00.101Z,101681.78
2022-12-18T12:56:37.207Z,101714.16
2022-12-18T12:59:18.204Z,101714.19
2022-12-18T13:01:56.874Z,101713.38
2022-12-18T13:04:34.203Z,101710.81
2022-12-18T13:07:07.465Z,101711.66
2022-12-18T13:09:36.774Z,101692.09
2022-12-18T13:12:24.498Z,101689.53
2022-12-18T13:14:52.565Z,101692.09
2022-12-18T13:17:33.053Z,101661.41
2022-12-18T13:20:11.283Z,101706.53
2022-12-18T13:22:43.062Z,101712.53
2022-12-18T13:25:35.863Z,101669.03
2022-12-18T13:28:10.611Z,101704.03
2022-12-18T13:30:57.390Z,101710.84
2022-12-18T13:34:25.542Z,101710.00
2022-12-18T13:36:56.521Z,101701.47
2022-12-18T13:39:36.722Z,101712.53
2022-12-18T13:42:59.955Z,101718.50
2022-12-18T13:45:47.462Z,101707.44
2022-12-18T13:48:27.971Z,101710.84
2022-12-18T13:51:01.734Z,101701.47
2022-12-18T13:53:34.312Z,101708.31
2022-12-18T13:56:03.840Z,101670.78
2022-12-18T13:58:31.767Z,101722.78
2022-12-18T14:01:00.338Z,101711.69
2022-12-18T14:03:31.575Z,101718.53
2022-12-18T14:06:06.822Z,101708.28
2022-12-18T14:08:40.063Z,101712.56
2022-12-18T14:11:09.653Z,101712.56
2022-12-18T14:13:44.067Z,101710.03
2022-12-18T14:16:16.529Z,101719.38
2022-12-18T14:18:48.525Z,101713.41
2022-12-18T14:21:24.128Z,101699.75
2022-12-18T14:24:06.281Z,101715.13
2022-12-18T14:26:35.268Z,101693.81
2022-12-18T14:29:19.852Z,101670.78
2022-12-18T14:32:11.825Z,101649.50
2022-12-18T14:34:43.190Z,101687.00
2022-12-18T14:37:14.666Z,101708.28
2022-12-18T14:39:42.678Z,101719.34
2022-12-18T14:42:13.930Z,101689.50
2022-12-18T14:45:05.054Z,101680.09
2022-12-18T14:47:29.989Z,101722.72
2022-12-18T14:49:57.869Z,101734.63
2022-12-18T14:52:31.699Z,101731.22
2022-12-18T14:54:59.684Z,101698.78
2022-12-18T14:57:34.891Z,101720.94
2022-12-18T15:00:07.260Z,101693.56
2022-12-18T15:02:38.601Z,101743.94
2022-12-18T15:05:18.277Z,101737.97
2022-12-18T15:07:49.461Z,101742.25
2022-12-18T15:10:20.064Z,101752.50
2022-12-18T15:12:50.492Z,101754.19
2022-12-18T15:15:36.887Z,101760.19
2022-12-18T15:18:07.870Z,101766.19
2022-12-18T15:24:26.277Z,101759.41
2022-12-18T15:26:54.354Z,101717.59
2022-12-18T15:29:24.086Z,101748.28
2022-12-18T15:32:02.793Z,101732.91
2022-12-18T15:34:32.100Z,101759.34
2022-12-18T15:37:00.000Z,101753.38
2022-12-18T15:39:29.476Z,101759.34
2022-12-18T15:42:29.075Z,101764.47
2022-12-18T15:44:57.073Z,101714.94
2022-12-18T15:47:25.165Z,101768.72
2022-12-18T15:49:52.991Z,101724.38
2022-12-18T15:52:27.235Z,101768.72
2022-12-18T15:55:14.176Z,101769.56
2022-12-18T15:57:42.214Z,101773.00
2022-12-18T16:00:14.825Z,101715.84
2022-12-18T16:02:42.954Z,101783.19
2022-12-18T16:05:18.026Z,101791.72
2022-12-18T16:07:46.149Z,101801.94
2022-12-18T16:10:16.069Z,101792.59
2022-12-18T16:12:44.716Z,101787.38
2022-12-18T16:15:22.493Z,101807.84
2022-12-18T16:17:52.943Z,101812.13
2022-12-18T16:20:23.395Z,101820.56
2022-12-18T16:22:51.527Z,101824.94
2022-12-18T16:25:23.147Z,101826.69
2022-12-18T16:27:51.841Z,101783.06
2022-12-18T16:30:21.896Z,101832.59
2022-12-18T16:32:49.952Z,101820.59
2022-12-18T16:35:19.060Z,101818.91
2022-12-18T16:37:46.937Z,101861.47
2022-12-18T16:40:17.527Z,101862.38
2022-12-18T16:42:48.095Z,101864.13
2022-12-18T16:45:18.882Z,101872.63
2022-12-18T16:47:47.195Z,101878.56
2022-12-18T16:50:15.104Z,101874.31
2022-12-18T16:52:44.091Z,101882.81
2022-12-18T16:55:11.945Z,101859.78
2022-12-18T16:57:40.382Z,101855.38
2022-12-18T17:00:11.613Z,101878.44
2022-12-18T17:02:40.438Z,101854.53
2022-12-18T17:05:09.126Z,101885.28
2022-12-18T17:07:37.120Z,101882.81
2022-12-18T17:10:05.927Z,101889.56
2022-12-18T17:12:33.916Z,101844.25
2022-12-18T17:15:02.008Z,101900.59
2022-12-18T17:17:31.218Z,101901.53
2022-12-18T17:19:59.220Z,101897.16
2022-12-18T17:22:27.193Z,101901.53
2022-12-18T17:24:55.119Z,101909.06
2022-12-18T17:27:23.121Z,101904.91
2022-12-18T17:29:51.046Z,101916.75
2022-12-18T17:32:19.134Z,101922.63
2022-12-18T17:34:48.455Z,101932.09
2022-12-18T17:37:16.945Z,101909.81
2022-12-18T17:39:46.011Z,101890.16
2022-12-18T17:42:15.473Z,101942.22
2022-12-18T17:44:44.277Z,101933.72
2022-12-18T17:47:13.106Z,101905.56
2022-12-18T17:49:41.274Z,101931.97
2022-12-18T17:52:11.207Z,101940.53
2022-12-18T17:54:42.263Z,101940.56
2022-12-18T17:57:10.958Z,101949.91
2022-12-18T17:59:38.978Z,101890.28
2022-12-18T18:02:07.260Z,101916.56
2022-12-18T18:04:36.626Z,101951.50
2022-12-18T18:07:04.575Z,101954.78
2022-12-18T18:09:34.028Z,101953.22
2022-12-18T18:12:19.232Z,101958.38
2022-12-18T18:14:47.513Z,101958.97
2022-12-18T18:17:15.568Z,101955.66
2022-12-18T18:19:44.206Z,101956.56
2022-12-18T18:22:17.017Z,101971.88
2022-12-18T18:24:48.227Z,101972.78
2022-12-18T18:27:16.800Z,101980.97
2022-12-18T18:29:44.916Z,101937.63
2022-12-18T18:32:12.984Z,101987.03
2022-12-18T18:34:40.862Z,101999.13
2022-12-18T18:37:10.985Z,101990.56
2022-12-18T18:39:39.350Z,101988.91
2022-12-18T18:42:08.843Z,101996.63
2022-12-18T18:44:36.984Z,102000.06
2022-12-18T18:47:07.400Z,102014.53
2022-12-18T18:49:37.755Z,102013.53
2022-12-18T18:52:07.267Z,102015.53
2022-12-18T18:54:35.166Z,102028.16
2022-12-18T18:57:19.862Z,102025.69
2022-12-18T18:59:50.119Z,102023.09
2022-12-18T19:02:19.031Z,102008.44
2022-12-18T19:04:47.228Z,102049.47
2022-12-18T19:07:25.394Z,102059.69
2022-12-18T19:10:04.057Z,102051.91
2022-12-18T19:12:51.712Z,102063.81
2022-12-18T19:15:21.647Z,102061.00
2022-12-18T19:17:49.641Z,102061.91
2022-12-18T19:20:18.402Z,102061.00
2022-12-18T19:22:52.193Z,102068.03
2022-12-18T19:25:28.133Z,102073.03
2022-12-18T19:28:07.253Z,102030.28
2022-12-18T19:30:59.153Z,102079.88
2022-12-18T19:33:43.195Z,102086.63
2022-12-18T19:36:14.150Z,102090.78
2022-12-18T19:38:43.710Z,102051.34
2022-12-18T19:41:13.580Z,102099.34
2022-12-18T19:43:43.041Z,102100.72
2022-12-18T19:46:15.338Z,102098.97
2022-12-18T19:48:44.868Z,102102.34
2022-12-18T19:51:15.985Z,102092.38
2022-12-18T19:53:44.027Z,102107.78
2022-12-18T19:56:13.919Z,102112.69
2022-12-18T19:58:42.501Z,102105.31
2022-12-18T20:01:12.312Z,102113.53
2022-12-18T20:03:42.354Z,102117.88
2022-12-18T20:06:13.902Z,102102.25
2022-12-18T20:08:41.949Z,102143.44
2022-12-18T20:11:10.273Z,102155.41
2022-12-18T20:13:38.768Z,102122.88
2022-12-18T20:16:07.390Z,102150.91
2022-12-18T20:18:36.864Z,102152.66
2022-12-18T20:21:07.194Z,102155.13
2022-12-18T20:23:37.715Z,102155.22
2022-12-18T20:26:05.920Z,102158.59
2022-12-18T20:28:36.666Z,102167.75
2022-12-18T20:31:10.470Z,102172.84
2022-12-18T20:33:43.927Z,102179.56
2022-12-18T20:36:19.151Z,102165.47
2022-12-18T20:38:49.495Z,102139.56
2022-12-18T20:41:21.163Z,102175.97
2022-12-18T20:43:49.582Z,102189.38
2022-12-18T20:46:19.038Z,102161.97
2022-12-18T20:48:48.953Z,102172.91
2022-12-18T20:51:20.354Z,102161.91
2022-12-18T20:53:49.133Z,102191.97
2022-12-18T20:56:20.350Z,102197.84
2022-12-18T20:58:50.091Z,102191.38
2022-12-18T21:01:21.586Z,102192.94
2022-12-18T21:03:51.134Z,102194.63
2022-12-18T21:06:21.418Z,102203.28
2022-12-18T21:08:49.765Z,102203.72
2022-12-18T21:11:44.238Z,102209.06
2022-12-18T21:14:14.330Z,102198.78
2022-12-18T21:16:43.752Z,102209.81
2022-12-18T21:19:14.942Z,102213.03
2022-12-18T21:21:43.812Z,102214.97
2022-12-18T21:24:12.109Z,102211.50
2022-12-18T21:26:45.479Z,102227.28
2022-12-18T21:29:16.304Z,102211.84
2022-12-18T21:31:44.876Z,102233.03
2022-12-18T21:34:16.793Z,102197.81
2022-12-18T21:36:45.179Z,102249.47
2022-12-18T21:39:22.504Z,102218.44
2022-12-18T21:42:08.992Z,102220.97
2022-12-18T21:44:41.735Z,102218.94
2022-12-18T21:47:22.016Z,102263.44
2022-12-18T21:49:53.254Z,102244.31
2022-12-18T21:52:29.793Z,102267.69
2022-12-18T21:55:07.830Z,102270.00
2022-12-18T21:57:36.864Z,102250.34
2022-12-18T22:00:05.993Z,102267.63
2022-12-18T22:02:34.009Z,102281.84
2022-12-18T22:05:03.444Z,102280.97
2022-12-18T22:07:31.451Z,102278.78
2022-12-18T22:09:59.837Z,102285.59
2022-12-18T22:12:43.473Z,102282.50
2022-12-18T22:15:18.628Z,102291.25
2022-12-18T22:17:50.190Z,102251.09
2022-12-18T22:20:20.404Z,102293.94
2022-12-18T22:22:48.459Z,102303.88
2022-12-18T22:25:17.519Z,102297.44
2022-12-18T22:28:06.112Z,102273.56
2022-12-18T22:30:33.254Z,102304.06
2022-12-18T22:33:01.597Z,102276.81
2022-12-18T22:35:30.971Z,102317.16
2022-12-18T22:37:59.635Z,102319.25
2022-12-18T22:40:28.074Z,102298.50
2022-12-18T22:42:56.320Z,102329.38
2022-12-18T22:45:24.829Z,102331.63
2022-12-18T22:47:53.207Z,102332.84
2022-12-18T22:50:21.282Z,102301.41
2022-12-18T22:52:50.588Z,102290.06
2022-12-18T22:55:18.563Z,102320.75
2022-12-18T22:57:49.110Z,102323.34
2022-12-18T23:00:20.127Z,102330.13
2022-12-18T23:02:59.309Z,102340.09
2022-12-18T23:05:28.437Z,102336.31
2022-12-18T23:07:57.924Z,102331.81
2022-12-18T23:10:25.986Z,102330.97
2022-12-18T23:12:53.956Z,102339.25
2022-12-18T23:15:27.819Z,102307.75
2022-12-18T23:17:57.373Z,102351.16
2022-12-18T23:20:25.498Z,102349.53
2022-12-18T23:22:53.326Z,102355.28
2022-12-18T23:25:22.703Z,102352.66
2022-12-18T23:27:50.713Z,102354.94
2022-12-18T23:30:18.812Z,102364.63
2022-12-18T23:32:46.831Z,102325.97
2022-12-18T23:35:15.778Z,102347.09
2022-12-18T23:38:00.163Z,102364.72
2022-12-18T23:40:30.310Z,102372.19
2022-12-18T23:42:58.227Z,102363.09
2022-12-18T23:45:26.138Z,102324.31
2022-12-18T23:47:54.198Z,102362.75
2022-12-18T23:50:29.619Z,102366.28
2022-12-18T23:53:04.668Z,102342.88
2022-12-18T23:55:35.385Z,102313.38
2022-12-18T23:58:04.488Z,102354.03
